createdAt,value
2017-08-10T00:00:29.418Z,77.63
2017-08-10T00:02:58.918Z,75.86
2017-08-10T00:05:28.469Z,75.75
2017-08-10T00:07:58.036Z,75.86
2017-08-10T00:10:27.695Z,75.25
2017-08-10T00:12:56.980Z,75.70
2017-08-10T00:15:26.413Z,75.60
2017-08-10T00:17:56.519Z,75.74
2017-08-10T00:20:25.950Z,76.93
2017-08-10T00:22:55.685Z,75.99
2017-08-10T00:25:25.132Z,75.97
2017-08-10T00:27:54.503Z,75.89
2017-08-10T00:30:23.963Z,75.10
2017-08-10T00:32:53.433Z,75.46
2017-08-10T00:35:22.761Z,75.53
2017-08-10T00:37:51.929Z,76.68
2017-08-10T00:40:21.576Z,76.47
2017-08-10T00:42:50.849Z,76.28
2017-08-10T00:45:23.054Z,75.76
2017-08-10T00:47:54.217Z,76.12
2017-08-10T00:50:23.802Z,75.60
2017-08-10T00:52:53.592Z,74.94
2017-08-10T00:55:22.943Z,74.97
2017-08-10T00:57:52.180Z,75.06
2017-08-10T01:00:21.692Z,75.03
2017-08-10T01:02:51.116Z,75.94
2017-08-10T01:05:20.767Z,75.50
2017-08-10T01:07:50.033Z,75.26
2017-08-10T01:10:19.463Z,75.48
2017-08-10T01:12:48.584Z,75.09
2017-08-10T01:15:17.869Z,75.38
2017-08-10T01:17:47.986Z,75.78
2017-08-10T01:20:17.277Z,75.50
2017-08-10T01:22:46.850Z,76.55
2017-08-10T01:25:16.097Z,76.36
2017-08-10T01:27:45.710Z,76.78
2017-08-10T01:30:15.208Z,76.48
2017-08-10T01:32:44.736Z,75.91
2017-08-10T01:35:14.395Z,75.87
2017-08-10T01:37:43.593Z,75.66
2017-08-10T01:40:12.955Z,76.95
2017-08-10T01:42:42.446Z,78.41
2017-08-10T01:45:11.696Z,76.96
2017-08-10T01:47:41.203Z,76.62
2017-08-10T01:50:10.396Z,78.08
2017-08-10T01:52:40.082Z,78.13
2017-08-10T01:55:09.441Z,77.71
2017-08-10T01:57:39.002Z,78.31
2017-08-10T02:00:08.802Z,78.68
2017-08-10T02:02:38.253Z,78.77
2017-08-10T02:05:07.851Z,77.94
2017-08-10T02:07:37.057Z,78.02
2017-08-10T02:10:06.594Z,77.87
2017-08-10T02:12:36.025Z,78.13
2017-08-10T02:15:06.432Z,77.26
2017-08-10T02:17:36.247Z,76.64
2017-08-10T02:20:05.809Z,77.68
2017-08-10T02:22:35.640Z,77.97
2017-08-10T02:25:05.417Z,79.53
2017-08-10T02:27:35.313Z,78.87
2017-08-10T02:30:04.706Z,78.03
2017-08-10T02:32:33.894Z,79.00
2017-08-10T02:35:03.156Z,77.80
2017-08-10T02:37:32.287Z,77.41
2017-08-10T02:40:01.398Z,78.52
2017-08-10T02:42:31.388Z,77.21
2017-08-10T02:45:00.659Z,76.63
2017-08-10T02:47:30.488Z,76.21
2017-08-10T02:49:59.701Z,75.97
2017-08-10T02:52:29.023Z,75.81
2017-08-10T02:54:58.231Z,76.11
2017-08-10T02:57:27.890Z,75.89
2017-08-10T02:59:57.427Z,76.15
2017-08-10T03:02:26.828Z,75.42
2017-08-10T03:04:56.305Z,74.73
2017-08-10T03:07:25.439Z,74.77
2017-08-10T03:09:54.864Z,75.51
2017-08-10T03:12:24.329Z,76.35
2017-08-10T03:14:53.863Z,77.01
2017-08-10T03:17:23.324Z,76.94
2017-08-10T03:19:52.421Z,77.37
2017-08-10T03:22:22.088Z,77.85
2017-08-10T03:24:51.474Z,76.81
2017-08-10T03:27:20.446Z,77.53
2017-08-10T03:29:49.843Z,77.65
2017-08-10T03:32:19.536Z,77.27
2017-08-10T03:34:48.666Z,77.43
2017-08-10T03:37:18.560Z,77.25
2017-08-10T03:39:47.679Z,77.47
2017-08-10T03:42:17.354Z,77.54
2017-08-10T03:44:46.517Z,77.54
2017-08-10T03:47:15.774Z,77.49
2017-08-10T03:49:45.499Z,77.30
2017-08-10T03:52:15.370Z,77.04
2017-08-10T03:54:44.472Z,76.89
2017-08-10T03:57:13.700Z,79.07
2017-08-10T03:59:43.854Z,78.32
2017-08-10T04:02:13.072Z,78.14
2017-08-10T04:04:42.749Z,78.41
2017-08-10T04:07:12.308Z,78.02
2017-08-10T04:09:41.360Z,77.86
2017-08-10T04:12:11.383Z,78.79
2017-08-10T04:14:38.817Z,78.03
2017-08-10T04:17:06.248Z,78.86
2017-08-10T04:19:33.658Z,79.65
2017-08-10T04:22:01.099Z,79.28
2017-08-10T04:24:28.556Z,80.61
2017-08-10T04:26:55.982Z,80.37
2017-08-10T04:29:23.423Z,79.17
2017-08-10T04:31:50.827Z,78.73
2017-08-10T04:34:18.243Z,79.63
2017-08-10T04:36:45.662Z,79.46
2017-08-10T04:39:13.165Z,79.02
2017-08-10T04:41:40.607Z,79.45
2017-08-10T04:44:08.030Z,78.84
2017-08-10T04:46:35.458Z,80.42
2017-08-10T04:49:02.916Z,80.02
2017-08-10T04:51:30.324Z,79.46
2017-08-10T04:53:57.788Z,79.05
2017-08-10T04:56:25.712Z,78.61
2017-08-10T04:58:53.279Z,78.16
2017-08-10T05:01:20.941Z,78.00
2017-08-10T05:03:48.355Z,78.78
2017-08-10T05:06:15.835Z,78.54
2017-08-10T05:08:43.411Z,78.35
2017-08-10T05:11:10.823Z,77.85
2017-08-10T05:13:38.279Z,78.11
2017-08-10T05:16:05.713Z,78.67
2017-08-10T05:18:33.161Z,78.43
2017-08-10T05:21:00.582Z,78.05
2017-08-10T05:23:28.157Z,79.87
2017-08-10T05:25:55.583Z,79.80
2017-08-10T05:28:22.996Z,79.21
2017-08-10T05:30:50.428Z,78.57
2017-08-10T05:33:18.056Z,78.89
2017-08-10T05:35:45.487Z,77.93
2017-08-10T05:38:12.919Z,77.51
2017-08-10T05:40:40.356Z,77.75
2017-08-10T05:43:07.791Z,77.95
2017-08-10T05:45:35.231Z,78.73
2017-08-10T05:48:02.652Z,78.65
2017-08-10T05:50:30.038Z,80.23
2017-08-10T05:52:57.475Z,81.54
2017-08-10T05:55:24.878Z,81.00
2017-08-10T05:57:52.356Z,81.21
2017-08-10T06:00:19.772Z,81.22
2017-08-10T06:02:47.181Z,80.02
2017-08-10T06:05:14.656Z,79.67
2017-08-10T06:07:42.083Z,78.48
2017-08-10T06:10:09.516Z,77.90
2017-08-10T06:12:37.805Z,78.09
2017-08-10T06:15:05.551Z,77.13
2017-08-10T06:17:33.016Z,76.69
2017-08-10T06:20:00.442Z,78.45
2017-08-10T06:22:27.941Z,79.40
2017-08-10T06:24:55.362Z,79.31
2017-08-10T06:27:22.787Z,79.62
2017-08-10T06:29:50.221Z,79.41
2017-08-10T06:32:17.664Z,79.93
2017-08-10T06:34:45.401Z,78.69
2017-08-10T06:37:12.821Z,79.74
2017-08-10T06:39:40.535Z,80.52
2017-08-10T06:42:07.941Z,79.21
2017-08-10T06:44:35.534Z,80.14
2017-08-10T06:47:02.962Z,80.15
2017-08-10T06:49:30.396Z,80.64
2017-08-10T06:51:58.012Z,80.30
2017-08-10T06:54:25.620Z,79.74
2017-08-10T06:56:53.127Z,78.14
2017-08-10T06:59:20.586Z,78.17
2017-08-10T07:01:48.003Z,78.02
2017-08-10T07:04:15.482Z,77.92
2017-08-10T07:06:42.955Z,78.64
2017-08-10T07:09:10.406Z,78.13
2017-08-10T07:11:37.842Z,77.08
2017-08-10T07:14:05.271Z,77.19
2017-08-10T07:16:32.706Z,76.66
2017-08-10T07:19:00.245Z,77.59
2017-08-10T07:21:27.717Z,77.99
2017-08-10T07:23:55.180Z,77.86
2017-08-10T07:26:22.631Z,77.84
2017-08-10T07:28:50.066Z,77.65
2017-08-10T07:31:17.486Z,76.92
2017-08-10T07:33:45.192Z,76.12
2017-08-10T07:36:12.602Z,76.58
2017-08-10T07:38:40.003Z,77.04
2017-08-10T07:41:07.446Z,77.17
2017-08-10T07:43:35.015Z,76.97
2017-08-10T07:46:02.471Z,76.53
2017-08-10T07:48:29.892Z,76.10
2017-08-10T07:50:57.324Z,76.10
2017-08-10T07:53:24.810Z,77.13
2017-08-10T07:55:52.216Z,79.56
2017-08-10T07:58:19.764Z,79.19
2017-08-10T08:00:47.201Z,78.82
2017-08-10T08:03:14.662Z,79.91
2017-08-10T08:05:42.086Z,80.91
2017-08-10T08:08:09.505Z,81.29
2017-08-10T08:10:36.947Z,80.73
2017-08-10T08:13:04.490Z,79.85
2017-08-10T08:15:31.935Z,81.55
2017-08-10T08:18:00.260Z,80.74
2017-08-10T08:20:27.667Z,80.70
2017-08-10T08:22:55.371Z,81.02
2017-08-10T08:25:22.815Z,80.53
2017-08-10T08:27:50.332Z,81.11
2017-08-10T08:30:17.768Z,81.73
2017-08-10T08:32:45.159Z,81.40
2017-08-10T08:35:12.636Z,81.06
2017-08-10T08:37:40.058Z,81.18
2017-08-10T08:40:07.508Z,81.41
2017-08-10T08:42:34.971Z,82.61
2017-08-10T08:45:02.669Z,81.34
2017-08-10T08:47:30.150Z,81.44
2017-08-10T08:49:57.990Z,81.35
2017-08-10T08:52:25.552Z,79.79
2017-08-10T08:54:53.011Z,79.29
2017-08-10T08:57:20.426Z,79.17
2017-08-10T08:59:47.862Z,80.33
2017-08-10T09:02:15.488Z,79.81
2017-08-10T09:04:42.955Z,79.62
2017-08-10T09:07:10.371Z,79.52
2017-08-10T09:09:37.796Z,80.34
2017-08-10T09:12:05.324Z,80.16
2017-08-10T09:14:33.605Z,81.50
2017-08-10T09:17:01.038Z,80.94
2017-08-10T09:19:28.457Z,80.58
2017-08-10T09:21:55.880Z,82.01
2017-08-10T09:24:23.308Z,82.60
2017-08-10T09:26:50.734Z,81.19
2017-08-10T09:29:18.165Z,80.27
2017-08-10T09:31:45.611Z,80.37
2017-08-10T09:34:13.036Z,81.84
2017-08-10T09:36:40.471Z,82.50
2017-08-10T09:39:07.941Z,82.10
2017-08-10T09:41:35.441Z,83.11
2017-08-10T09:44:02.886Z,81.83
2017-08-10T09:46:30.308Z,82.59
2017-08-10T09:48:57.850Z,84.30
2017-08-10T09:51:25.265Z,83.51
2017-08-10T09:53:52.652Z,83.27
2017-08-10T09:56:20.146Z,82.68
2017-08-10T09:58:47.608Z,83.54
2017-08-10T10:01:15.040Z,83.09
2017-08-10T10:03:42.453Z,83.31
2017-08-10T10:06:09.886Z,83.64
2017-08-10T10:08:37.326Z,84.08
2017-08-10T10:11:04.786Z,83.82
2017-08-10T10:13:32.248Z,82.98
2017-08-10T10:15:59.782Z,82.29
2017-08-10T10:18:27.198Z,82.19
2017-08-10T10:20:54.607Z,82.55
2017-08-10T10:23:22.060Z,82.32
2017-08-10T10:25:49.490Z,83.93
2017-08-10T10:28:17.023Z,83.07
2017-08-10T10:30:44.451Z,82.88
2017-08-10T10:33:11.870Z,83.39
2017-08-10T10:35:39.316Z,83.60
2017-08-10T10:38:06.741Z,82.88
2017-08-10T10:40:34.157Z,81.93
2017-08-10T10:43:01.653Z,82.15
2017-08-10T10:45:29.075Z,83.09
2017-08-10T10:47:56.491Z,83.06
2017-08-10T10:50:24.004Z,81.70
2017-08-10T10:52:51.441Z,81.93
2017-08-10T10:55:18.868Z,82.12
2017-08-10T10:57:46.284Z,82.61
2017-08-10T11:00:13.738Z,82.57
2017-08-10T11:02:41.150Z,82.90
2017-08-10T11:05:08.574Z,82.63
2017-08-10T11:07:36.033Z,82.51
2017-08-10T11:10:03.453Z,81.71
2017-08-10T11:12:30.858Z,81.35
2017-08-10T11:14:58.282Z,81.48
2017-08-10T11:17:25.691Z,82.45
2017-08-10T11:19:53.135Z,82.65
2017-08-10T11:22:20.563Z,82.17
2017-08-10T11:24:48.045Z,82.73
2017-08-10T11:27:15.448Z,82.19
2017-08-10T11:29:42.852Z,82.21
2017-08-10T11:32:10.279Z,81.92
2017-08-10T11:34:37.705Z,81.36
2017-08-10T11:37:05.123Z,82.82
2017-08-10T11:39:32.619Z,82.13
2017-08-10T11:42:00.069Z,82.71
2017-08-10T11:44:27.603Z,81.79
2017-08-10T11:46:54.947Z,83.16
2017-08-10T11:49:22.404Z,82.15
2017-08-10T11:51:49.862Z,82.66
2017-08-10T11:54:17.288Z,80.71
2017-08-10T11:56:44.763Z,81.85
2017-08-10T11:59:12.175Z,82.17
2017-08-10T12:01:39.614Z,81.73
2017-08-10T12:04:07.048Z,80.47
2017-08-10T12:06:34.536Z,81.00
2017-08-10T12:09:01.939Z,80.88
2017-08-10T12:11:29.390Z,83.13
2017-08-10T12:13:56.859Z,82.03
2017-08-10T12:16:24.286Z,79.83
2017-08-10T12:18:51.723Z,80.79
2017-08-10T12:21:19.126Z,80.52
2017-08-10T12:23:46.553Z,79.73
2017-08-10T12:26:13.984Z,80.27
2017-08-10T12:28:41.429Z,78.64
2017-08-10T12:31:08.907Z,78.18
2017-08-10T12:33:36.306Z,79.52
2017-08-10T12:36:04.485Z,78.42
2017-08-10T12:38:32.233Z,78.63
2017-08-10T12:40:59.697Z,79.25
2017-08-10T12:43:27.122Z,78.68
2017-08-10T12:45:54.532Z,79.23
2017-08-10T12:48:21.983Z,79.55
2017-08-10T12:50:49.485Z,77.49
2017-08-10T12:53:16.952Z,79.72
2017-08-10T12:55:44.362Z,78.45
2017-08-10T12:58:11.770Z,77.50
2017-08-10T13:00:39.215Z,78.01
2017-08-10T13:03:06.915Z,78.28
2017-08-10T13:05:34.339Z,79.15
2017-08-10T13:08:02.370Z,79.31
2017-08-10T13:10:29.800Z,79.42
2017-08-10T13:12:57.415Z,77.69
2017-08-10T13:15:24.863Z,79.38
2017-08-10T13:17:52.309Z,78.71
2017-08-10T13:20:19.894Z,78.84
2017-08-10T13:22:47.409Z,79.45
2017-08-10T13:25:14.835Z,78.42
2017-08-10T13:27:42.288Z,79.04
2017-08-10T13:30:09.711Z,78.09
2017-08-10T13:32:37.150Z,78.97
2017-08-10T13:35:04.592Z,77.88
2017-08-10T13:37:32.032Z,79.38
2017-08-10T13:39:59.506Z,78.69
2017-08-10T13:42:26.943Z,77.47
2017-08-10T13:44:54.452Z,76.16
2017-08-10T13:47:21.898Z,77.73
2017-08-10T13:49:49.384Z,77.70
2017-08-10T13:52:16.823Z,76.99
2017-08-10T13:54:44.256Z,77.21
2017-08-10T13:57:11.708Z,76.40
2017-08-10T13:59:39.995Z,76.70
2017-08-10T14:02:07.604Z,77.17
2017-08-10T14:04:35.101Z,78.79
2017-08-10T14:07:02.511Z,77.99
2017-08-10T14:09:29.954Z,79.60
2017-08-10T14:11:57.375Z,77.83
2017-08-10T14:14:24.772Z,79.14
2017-08-10T14:16:52.214Z,80.94
2017-08-10T14:19:19.632Z,79.71
2017-08-10T14:21:47.071Z,79.75
2017-08-10T14:24:14.474Z,80.50
2017-08-10T14:26:41.900Z,81.14
2017-08-10T14:29:09.473Z,80.79
2017-08-10T14:31:36.871Z,78.63
2017-08-10T14:34:04.339Z,79.59
2017-08-10T14:36:31.756Z,78.00
2017-08-10T14:38:59.212Z,78.98
2017-08-10T14:41:26.613Z,80.04
2017-08-10T14:43:54.051Z,78.44
2017-08-10T14:46:21.604Z,79.91
2017-08-10T14:48:49.008Z,78.08
2017-08-10T14:51:16.607Z,77.35
2017-08-10T14:53:44.066Z,78.83
2017-08-10T14:56:11.480Z,77.67
2017-08-10T14:58:38.903Z,77.63
2017-08-10T15:01:06.374Z,78.05
2017-08-10T15:03:33.858Z,78.88
2017-08-10T15:06:01.346Z,77.73
2017-08-10T15:08:28.781Z,77.95
2017-08-10T15:10:56.400Z,77.29
2017-08-10T15:13:24.040Z,76.33
2017-08-10T15:15:51.482Z,76.96
2017-08-10T15:18:18.949Z,77.61
2017-08-10T15:20:46.401Z,76.20
2017-08-10T15:23:13.827Z,75.28
2017-08-10T15:25:41.240Z,76.75
2017-08-10T15:28:08.699Z,75.75
2017-08-10T15:30:36.114Z,75.41
2017-08-10T15:33:03.728Z,74.50
2017-08-10T15:35:31.129Z,75.04
2017-08-10T15:37:58.582Z,75.24
2017-08-10T15:40:26.010Z,73.03
2017-08-10T15:42:54.528Z,74.93
2017-08-10T15:45:21.969Z,74.20
2017-08-10T15:47:49.628Z,74.97
2017-08-10T15:50:18.232Z,74.49
2017-08-10T16:04:20.676Z,76.92
2017-08-10T16:06:48.712Z,76.01
2017-08-10T16:09:16.324Z,75.42
2017-08-10T16:11:45.257Z,74.75
2017-08-10T16:14:13.140Z,76.38
2017-08-10T16:16:40.740Z,75.83
2017-08-10T16:19:08.800Z,77.58
2017-08-10T16:21:36.924Z,75.37
2017-08-10T16:24:05.631Z,76.31
2017-08-10T16:26:33.663Z,76.45
2017-08-10T16:29:01.796Z,76.24
2017-08-10T16:37:14.449Z,77.01
2017-08-10T17:14:12.505Z,78.39
2017-08-10T17:16:40.341Z,78.62
2017-08-10T17:19:08.150Z,78.87
2017-08-10T17:21:36.057Z,78.62
2017-08-10T17:24:04.524Z,79.15
2017-08-10T17:26:32.188Z,79.11
2017-08-10T17:28:59.959Z,80.06
2017-08-10T17:31:27.564Z,79.93
2017-08-10T17:33:55.222Z,79.58
2017-08-10T17:36:23.060Z,80.18
2017-08-10T17:38:50.857Z,80.63
2017-08-10T17:41:18.695Z,79.36
2017-08-10T17:43:48.215Z,79.74
2017-08-10T18:29:45.174Z,79.20
